Time;durP1;ratioP1;P1;durP2;ratioP2;P2;SDS_P1;SDS_P2;PMS_P1;PMS_P2;Temp;Humidity;BMP_temperature;BMP_pressure;BME280_temperature;BME280_humidity;BME280_pressure;Samples;Min_cycle;Max_cycle;Signal;HPM_P1;HPM_P2
2021/12/03 00:01:04;;;;;;;5.85;4.05;;;;;;;6.83;76.45;98294.50;4485675;32;33605;-66
2021/12/03 00:03:33;;;;;;;5.72;3.70;;;;;;;6.40;78.26;98288.28;4485743;32;33864;-67
2021/12/03 00:06:01;;;;;;;6.00;4.00;;;;;;;6.60;77.14;98297.59;4497502;31;34040;-66
2021/12/03 00:08:29;;;;;;;6.97;3.85;;;;;;;6.31;78.27;98289.81;4485703;32;34568;-79
2021/12/03 00:11:00;;;;;;;6.18;4.22;;;;;;;5.76;79.71;98291.69;4485735;32;34301;-66
2021/12/03 00:13:31;;;;;;;6.47;3.75;;;;;;;5.95;79.82;98286.78;4485644;32;33995;-66
2021/12/03 00:15:59;;;;;;;6.20;3.80;;;;;;;5.52;80.98;98301.91;4485207;32;34935;-66
2021/12/03 00:18:27;;;;;;;5.55;3.40;;;;;;;6.02;79.04;98287.38;4485648;32;34688;-66
2021/12/03 00:20:56;;;;;;;5.18;3.25;;;;;;;5.99;78.09;98289.81;4485619;32;34165;-67
2021/12/03 00:23:26;;;;;;;5.93;2.87;;;;;;;6.26;77.50;98303.22;4485429;32;34773;-66
2021/12/03 00:25:54;;;;;;;4.85;3.20;;;;;;;6.27;76.64;98311.06;4485325;32;34114;-66
2021/12/03 00:28:21;;;;;;;4.40;3.12;;;;;;;6.00;77.78;98303.00;4485612;32;34044;-65
2021/12/03 00:30:49;;;;;;;6.05;3.08;;;;;;;6.54;75.92;98311.03;4485389;32;33566;-66
2021/12/03 00:33:17;;;;;;;4.68;2.87;;;;;;;6.73;74.85;98316.00;4485051;32;34587;-66
2021/12/03 00:35:44;;;;;;;4.53;2.85;;;;;;;6.75;74.79;98319.25;4485551;32;33958;-68
2021/12/03 00:38:15;;;;;;;4.55;2.92;;;;;;;6.67;74.93;98328.62;4485317;32;34799;-66
2021/12/03 00:41:01;;;;;;;5.07;3.05;;;;;;;6.58;75.63;98325.56;4485512;32;35156;-66
2021/12/03 00:43:28;;;;;;;3.87;2.62;;;;;;;6.54;75.40;98320.97;4484173;32;35010;-66
2021/12/03 00:46:04;;;;;;;5.03;2.90;;;;;;;6.60;74.84;98328.03;4485136;32;34160;-66
2021/12/03 00:48:32;;;;;;;5.40;3.00;;;;;;;6.85;74.17;98340.09;4485205;32;33673;-67
2021/12/03 00:51:00;;;;;;;4.00;2.60;;;;;;;6.81;74.14;98344.38;4485273;32;34516;-66
2021/12/03 00:53:27;;;;;;;5.97;2.97;;;;;;;7.02;73.41;98348.00;4485420;32;34022;-67
2021/12/03 00:55:55;;;;;;;4.65;2.92;;;;;;;6.94;73.58;98349.31;4485189;32;35064;-66
2021/12/03 00:58:23;;;;;;;4.37;2.50;;;;;;;7.14;72.81;98349.41;4485377;32;33659;-66
2021/12/03 01:00:51;;;;;;;4.20;2.50;;;;;;;7.31;72.25;98343.84;4485368;32;32923;-66
2021/12/03 01:03:19;;;;;;;4.87;2.40;;;;;;;7.47;71.57;98352.81;4485010;32;33780;-67
2021/12/03 01:05:46;;;;;;;6.07;2.80;;;;;;;7.50;71.11;98360.41;4485179;32;35078;-67
2021/12/03 01:08:14;;;;;;;5.10;2.80;;;;;;;7.09;72.89;98365.59;4485287;32;34390;-67
2021/12/03 01:10:42;;;;;;;5.28;3.35;;;;;;;7.16;72.39;98355.37;4485144;32;33564;-67
2021/12/03 01:13:09;;;;;;;3.75;2.83;;;;;;;7.10;72.69;98359.09;4485139;32;33764;-66
2021/12/03 01:15:38;;;;;;;4.80;3.05;;;;;;;6.91;72.93;98366.81;4485113;32;34176;-66
2021/12/03 01:18:08;;;;;;;5.47;3.05;;;;;;;7.07;72.52;98369.63;4484804;32;33699;-67
2021/12/03 01:20:36;;;;;;;6.18;3.83;;;;;;;6.99;72.79;98370.91;4485089;32;33421;-67
2021/12/03 01:23:05;;;;;;;5.20;2.97;;;;;;;6.68;74.34;98367.19;4485163;32;33544;-66
2021/12/03 01:25:33;;;;;;;5.97;3.65;;;;;;;6.52;74.89;98361.66;4484731;32;34321;-67
2021/12/03 01:28:01;;;;;;;5.72;3.53;;;;;;;6.70;74.29;98370.44;4485013;32;34788;-66
2021/12/03 01:30:29;;;;;;;5.10;3.25;;;;;;;6.64;74.55;98369.56;4485143;32;33311;-66
2021/12/03 01:32:59;;;;;;;5.05;3.37;;;;;;;6.53;75.03;98370.56;4484636;32;33877;-67
2021/12/03 01:35:27;;;;;;;4.45;2.92;;;;;;;6.49;74.67;98370.25;4485088;32;34267;-71
2021/12/03 01:37:56;;;;;;;5.97;3.62;;;;;;;6.49;75.01;98366.75;4484761;32;34141;-67
2021/12/03 01:40:26;;;;;;;5.00;3.55;;;;;;;6.45;74.39;98373.72;4484715;32;33329;-66
2021/12/03 01:42:55;;;;;;;6.68;3.75;;;;;;;6.71;74.02;98380.13;4484658;32;33678;-67
2021/12/03 01:45:27;;;;;;;5.50;3.50;;;;;;;6.91;73.31;98376.78;4484061;32;34340;-67
2021/12/03 01:47:55;;;;;;;5.30;3.78;;;;;;;6.84;73.27;98386.97;4486838;32;33907;-66
2021/12/03 01:50:25;;;;;;;6.95;4.07;;;;;;;6.89;72.71;98393.22;4486868;32;33536;-66
2021/12/03 01:52:52;;;;;;;6.03;3.70;;;;;;;6.57;73.63;98396.72;4486510;32;34725;-66
2021/12/03 01:55:21;;;;;;;4.90;3.53;;;;;;;6.48;74.48;98398.28;4486669;32;35067;-66
2021/12/03 01:57:48;;;;;;;6.20;4.20;;;;;;;6.47;74.49;98391.25;4486456;32;34037;-66
2021/12/03 02:00:24;;;;;;;9.20;4.90;;;;;;;6.63;73.53;98389.50;4486475;32;33497;-66
2021/12/03 02:02:52;;;;;;;7.32;4.30;;;;;;;5.96;76.20;98388.00;4498465;31;33889;-66
2021/12/03 02:05:20;;;;;;;6.80;4.30;;;;;;;6.56;73.92;98395.09;4485446;32;33973;-66
2021/12/03 02:07:48;;;;;;;7.37;4.85;;;;;;;6.41;74.78;98402.22;4486510;32;34122;-63
2021/12/03 02:10:18;;;;;;;5.93;4.28;;;;;;;6.33;74.93;98407.00;4486453;32;34216;-67
2021/12/03 02:12:46;;;;;;;6.05;3.78;;;;;;;6.53;74.28;98413.66;4486393;32;34745;-66
2021/12/03 02:15:14;;;;;;;5.97;4.03;;;;;;;6.53;74.24;98400.19;4486544;32;34309;-66
2021/12/03 02:17:41;;;;;;;7.43;4.43;;;;;;;6.55;73.99;98398.06;4486327;32;34684;-66
2021/12/03 02:20:10;;;;;;;6.15;4.00;;;;;;;6.18;75.78;98400.63;4486231;32;33477;-66
2021/12/03 02:22:39;;;;;;;8.00;4.80;;;;;;;6.19;75.76;98405.78;4486394;32;34576;-66
2021/12/03 02:25:10;;;;;;;7.20;4.90;;;;;;;6.09;75.86;98416.44;4485519;32;34183;-67
2021/12/03 02:27:38;;;;;;;7.62;5.07;;;;;;;5.76;77.13;98418.16;4497935;31;33926;-67
2021/12/03 02:30:08;;;;;;;7.87;5.00;;;;;;;5.71;77.98;98416.22;4486511;32;33506;-67
2021/12/03 02:32:35;;;;;;;7.07;4.80;;;;;;;5.98;77.10;98426.25;4486675;32;33321;-71
2021/12/03 02:35:03;;;;;;;8.02;5.35;;;;;;;6.09;76.78;98430.72;4486179;32;34241;-80
2021/12/03 02:37:31;;;;;;;8.32;5.05;;;;;;;6.26;75.45;98444.09;4486352;32;33976;-66
2021/12/03 02:39:58;;;;;;;7.93;5.03;;;;;;;6.52;74.77;98445.19;4486437;32;33529;-66
2021/12/03 02:42:26;;;;;;;7.53;4.95;;;;;;;6.04;76.26;98454.88;4486196;32;33935;-67
2021/12/03 02:44:53;;;;;;;7.80;5.07;;;;;;;6.08;76.19;98456.00;4486363;32;33963;-66
2021/12/03 02:47:21;;;;;;;6.80;5.03;;;;;;;6.11;75.97;98462.75;4484929;32;34010;-79
2021/12/03 02:49:49;;;;;;;7.60;5.03;;;;;;;5.82;77.23;98471.00;4486256;32;33742;-66
2021/12/03 02:52:16;;;;;;;8.60;5.72;;;;;;;5.52;77.96;98468.72;4486297;32;34874;-67
2021/12/03 02:54:44;;;;;;;10.10;6.20;;;;;;;5.58;78.14;98480.38;4486154;32;35254;-66
2021/12/03 02:57:11;;;;;;;9.27;5.55;;;;;;;6.22;75.99;98478.00;4485452;32;34822;-67
2021/12/03 02:59:39;;;;;;;11.27;6.57;;;;;;;6.00;76.63;98485.25;4486299;32;34026;-66
2021/12/03 03:02:06;;;;;;;9.25;6.20;;;;;;;6.25;75.67;98485.56;4486163;32;33855;-66
2021/12/03 03:04:51;;;;;;;11.18;7.00;;;;;;;6.39;75.18;98488.69;4486224;32;33973;-66
2021/12/03 03:07:20;;;;;;;10.05;6.65;;;;;;;6.06;76.22;98500.41;4485073;32;34025;-66
2021/12/03 03:09:48;;;;;;;10.32;6.68;;;;;;;5.57;78.63;98511.81;4485942;32;33543;-66
2021/12/03 03:12:15;;;;;;;12.15;7.00;;;;;;;6.40;75.67;98508.38;4486170;32;33924;-67
2021/12/03 03:14:57;;;;;;;9.25;6.30;;;;;;;5.82;77.58;98518.66;4485942;32;34831;-67
2021/12/03 03:17:28;;;;;;;10.95;6.97;;;;;;;6.15;76.15;98515.91;4485799;32;34169;-66
2021/12/03 03:19:57;;;;;;;11.63;7.25;;;;;;;5.76;77.84;98518.56;4485984;32;34401;-66
2021/12/03 03:22:25;;;;;;;12.23;7.90;;;;;;;6.00;76.86;98526.44;4485791;32;34626;-67
2021/12/03 03:24:53;;;;;;;11.75;7.60;;;;;;;5.52;79.84;98517.13;4486035;32;34224;-67
2021/12/03 03:27:21;;;;;;;15.10;9.25;;;;;;;5.52;79.64;98525.19;4486104;32;33777;-66
2021/12/03 03:29:51;;;;;;;14.30;8.75;;;;;;;5.42;79.72;98536.63;4485821;32;33486;-67
2021/12/03 03:32:19;;;;;;;14.70;9.27;;;;;;;5.75;78.51;98534.97;4485934;32;33970;-67
2021/12/03 03:34:46;;;;;;;13.43;9.15;;;;;;;5.87;77.82;98545.63;4486086;32;34111;-66
2021/12/03 03:37:15;;;;;;;14.55;9.48;;;;;;;6.01;77.24;98548.81;4485797;32;34644;-66
2021/12/03 03:39:43;;;;;;;14.93;9.85;;;;;;;5.80;77.82;98553.06;4497672;31;33485;-67
2021/12/03 03:42:11;;;;;;;16.80;10.13;;;;;;;6.07;77.27;98553.19;4484902;32;33756;-66
2021/12/03 03:44:39;;;;;;;16.70;10.57;;;;;;;5.97;77.84;98563.84;4485915;32;34385;-68
2021/12/03 03:47:07;;;;;;;18.27;11.27;;;;;;;6.06;77.31;98565.84;4485799;32;34649;-66
2021/12/03 03:49:35;;;;;;;17.90;11.18;;;;;;;5.73;77.91;98574.78;4485445;32;33523;-66
2021/12/03 03:52:04;;;;;;;21.20;12.25;;;;;;;5.89;78.56;98576.59;4485831;32;33871;-66
2021/12/03 03:54:32;;;;;;;19.42;11.73;;;;;;;5.51;79.87;98578.19;4485787;32;34288;-68
2021/12/03 03:57:00;;;;;;;18.17;12.10;;;;;;;6.07;77.70;98578.25;4485844;32;34016;-66
2021/12/03 03:59:28;;;;;;;21.50;13.55;;;;;;;5.70;79.09;98586.00;4486034;32;33537;-67
2021/12/03 04:01:55;;;;;;;21.80;14.10;;;;;;;5.53;79.82;98583.34;4485815;32;34869;-70
2021/12/03 04:04:25;;;;;;;17.23;12.55;;;;;;;5.66;79.13;98587.56;4485514;32;34053;-66
2021/12/03 04:06:53;;;;;;;20.42;12.07;;;;;;;5.62;79.35;98578.38;4485613;32;34954;-67
2021/12/03 04:09:21;;;;;;;21.00;13.38;;;;;;;5.69;79.13;98582.50;4484463;32;34636;-67
2021/12/03 04:11:48;;;;;;;21.58;13.45;;;;;;;5.88;77.79;98584.94;4485508;32;34216;-66
2021/12/03 04:14:16;;;;;;;21.85;13.88;;;;;;;5.31;80.74;98589.44;4484835;32;34208;-67
2021/12/03 04:16:43;;;;;;;23.87;15.20;;;;;;;4.84;83.07;98594.25;4485664;32;33699;-66
2021/12/03 04:19:11;;;;;;;21.85;13.27;;;;;;;4.73;83.14;98607.47;4485287;32;33616;-66
2021/12/03 04:21:38;;;;;;;22.70;14.27;;;;;;;5.18;81.87;98621.19;4485790;32;34578;-67
2021/12/03 04:24:06;;;;;;;22.05;13.73;;;;;;;5.22;81.04;98627.72;4485637;32;34248;-67
2021/12/03 04:26:34;;;;;;;22.17;14.30;;;;;;;4.98;81.66;98632.38;4485443;32;34768;-67
2021/12/03 04:29:01;;;;;;;20.62;13.40;;;;;;;5.19;80.23;98636.28;4485709;32;33675;-66
2021/12/03 04:31:29;;;;;;;21.37;14.48;;;;;;;5.21;80.18;98642.22;4485584;32;33947;-66
2021/12/03 04:33:57;;;;;;;21.60;14.50;;;;;;;4.36;84.69;98649.12;4485259;32;34764;-66
2021/12/03 04:36:24;;;;;;;22.60;14.45;;;;;;;4.88;82.20;98643.75;4485778;32;34089;-66
2021/12/03 04:38:52;;;;;;;24.83;15.32;;;;;;;5.43;79.80;98661.19;4485639;32;34261;-67
2021/12/03 04:41:19;;;;;;;23.62;15.30;;;;;;;4.98;80.58;98665.44;4485302;32;33984;-66
2021/12/03 04:43:47;;;;;;;24.87;15.10;;;;;;;4.83;82.15;98673.22;4485448;32;34953;-67
2021/12/03 04:46:14;;;;;;;23.73;15.80;;;;;;;5.30;80.00;98673.06;4485327;32;33838;-67
2021/12/03 04:48:42;;;;;;;25.17;15.80;;;;;;;4.15;84.39;98669.31;4485012;32;33654;-66
2021/12/03 04:51:10;;;;;;;27.42;15.68;;;;;;;4.47;83.63;98681.34;4485471;32;33896;-66
2021/12/03 04:53:37;;;;;;;26.35;16.65;;;;;;;4.45;83.05;98680.75;4485409;32;35036;-66
2021/12/03 04:56:05;;;;;;;25.77;15.75;;;;;;;4.46;82.18;98697.69;4484954;32;34146;-67
2021/12/03 04:58:32;;;;;;;24.55;15.60;;;;;;;4.59;82.31;98702.81;4485413;32;34477;-67
2021/12/03 05:01:00;;;;;;;27.55;16.40;;;;;;;4.57;82.27;98710.28;4485169;32;34008;-66
2021/12/03 05:03:29;;;;;;;26.08;16.37;;;;;;;4.89;81.17;98708.00;4485090;32;35108;-68
2021/12/03 05:06:00;;;;;;;26.52;16.55;;;;;;;4.53;82.75;98711.81;4485175;32;34653;-66
2021/12/03 05:08:29;;;;;;;27.27;17.48;;;;;;;4.75;81.46;98720.06;4482865;32;34556;-72
2021/12/03 05:10:58;;;;;;;26.02;16.27;;;;;;;4.17;83.04;98727.13;4485127;32;33648;-72
2021/12/03 05:13:29;;;;;;;29.67;16.52;;;;;;;4.54;81.88;98726.06;4485112;32;35084;-66
2021/12/03 05:15:57;;;;;;;28.08;16.02;;;;;;;4.41;82.14;98730.63;4483851;32;34699;-69
2021/12/03 05:18:28;;;;;;;25.30;16.55;;;;;;;4.02;83.79;98727.56;4485060;32;33668;-66
2021/12/03 05:20:57;;;;;;;25.85;16.35;;;;;;;4.24;83.26;98753.84;4484392;32;33715;-77
2021/12/03 05:23:27;;;;;;;25.10;16.95;;;;;;;3.99;84.00;98754.84;4484588;32;34188;-67
2021/12/03 05:25:55;;;;;;;28.85;16.30;;;;;;;4.46;82.24;98765.63;4484956;32;34571;-66
2021/12/03 05:28:22;;;;;;;24.77;15.25;;;;;;;4.50;81.33;98766.81;4484928;32;33559;-66
2021/12/03 05:30:51;;;;;;;27.98;15.25;;;;;;;4.27;81.30;98767.59;4484478;32;34698;-66
2021/12/03 05:33:19;;;;;;;24.12;15.27;;;;;;;4.06;82.65;98778.91;4484727;32;34307;-66
2021/12/03 05:35:47;;;;;;;26.60;15.30;;;;;;;4.42;80.86;98788.63;4484816;32;33982;-66
2021/12/03 05:38:16;;;;;;;21.58;14.38;;;;;;;4.43;79.92;98789.47;4483067;32;33407;-77
2021/12/03 05:40:43;;;;;;;25.33;15.05;;;;;;;4.26;79.90;98798.22;4484614;32;34408;-69
2021/12/03 05:43:16;;;;;;;23.50;14.40;;;;;;;4.10;81.24;98802.38;4484502;32;35189;-67
2021/12/03 05:45:45;;;;;;;22.65;12.90;;;;;;;4.28;79.22;98814.91;4484498;32;33904;-66
2021/12/03 05:48:13;;;;;;;21.20;12.45;;;;;;;4.87;77.24;98819.50;4484449;32;33773;-65
2021/12/03 05:50:42;;;;;;;20.08;12.52;;;;;;;4.04;79.57;98829.31;4484068;32;33928;-67
2021/12/03 05:53:10;;;;;;;19.02;12.68;;;;;;;3.63;80.65;98844.34;4483059;32;34400;-66
2021/12/03 05:55:37;;;;;;;16.75;11.05;;;;;;;4.00;79.95;98852.31;4484471;32;33556;-67
2021/12/03 05:58:05;;;;;;;20.60;11.57;;;;;;;3.98;78.80;98855.22;4484193;32;33590;-67
2021/12/03 06:00:36;;;;;;;18.08;11.20;;;;;;;4.33;76.64;98865.22;4484274;32;33669;-66
2021/12/03 06:03:04;;;;;;;17.50;10.85;;;;;;;4.36;75.18;98867.44;4484449;32;34971;-65
2021/12/03 06:05:33;;;;;;;16.27;10.10;;;;;;;4.24;75.38;98874.66;4484406;32;34012;-71
2021/12/03 06:08:00;;;;;;;17.48;10.68;;;;;;;4.52;74.30;98877.53;4483947;32;34397;-66
2021/12/03 06:10:28;;;;;;;15.48;9.40;;;;;;;4.38;74.75;98883.34;4484019;32;34699;-76
2021/12/03 06:12:56;;;;;;;16.20;9.23;;;;;;;4.77;73.54;98886.44;4483927;32;33789;-69
2021/12/03 06:15:24;;;;;;;13.20;8.88;;;;;;;4.58;73.45;98891.06;4484257;32;34050;-67
2021/12/03 06:17:52;;;;;;;15.80;9.00;;;;;;;4.83;72.07;98894.38;4484245;32;33407;-66
2021/12/03 06:20:19;;;;;;;14.32;8.50;;;;;;;4.69;72.61;98895.69;4483676;32;33543;-67
2021/12/03 06:22:47;;;;;;;13.68;7.97;;;;;;;4.61;72.92;98901.38;4482901;32;34149;-66
2021/12/03 06:25:18;;;;;;;14.23;8.25;;;;;;;4.65;72.32;98908.75;4482999;32;34702;-65
2021/12/03 06:27:46;;;;;;;12.73;7.50;;;;;;;4.18;72.99;98908.59;4483931;32;34763;-68
2021/12/03 06:30:17;;;;;;;14.15;7.40;;;;;;;4.17;74.06;98917.72;4483964;32;34696;-70
2021/12/03 06:32:44;;;;;;;13.52;7.87;;;;;;;3.88;74.01;98925.50;4484948;32;34268;-65
2021/12/03 06:35:13;;;;;;;14.48;7.00;;;;;;;4.27;72.33;98941.31;4479347;32;34181;-70
2021/12/03 06:37:41;;;;;;;12.93;7.18;;;;;;;3.96;72.95;98937.81;4483211;32;33741;-67
2021/12/03 06:40:13;;;;;;;14.43;7.65;;;;;;;4.01;73.27;98956.72;4484887;32;34759;-72
2021/12/03 06:42:41;;;;;;;11.88;6.57;;;;;;;3.93;72.92;98965.13;4480563;32;34351;-66
2021/12/03 06:45:09;;;;;;;11.60;6.25;;;;;;;3.67;73.72;98975.09;4468576;32;34422;-66
2021/12/03 06:47:37;;;;;;;11.45;6.57;;;;;;;4.00;71.31;98979.25;4469212;32;33572;-65
2021/12/03 06:50:07;;;;;;;9.45;6.03;;;;;;;3.83;71.97;98980.91;4469214;32;34010;-66
2021/12/03 06:52:39;;;;;;;10.38;5.78;;;;;;;4.03;70.98;98983.34;4469354;32;33936;-68
2021/12/03 06:55:10;;;;;;;12.20;6.45;;;;;;;3.99;71.67;98996.41;4469161;32;35042;-66
2021/12/03 06:57:41;;;;;;;10.38;6.43;;;;;;;3.79;72.51;98998.50;4467985;32;34164;-66
2021/12/03 07:00:10;;;;;;;12.32;5.90;;;;;;;3.85;71.72;99001.09;4469091;32;33714;-67
2021/12/03 07:02:37;;;;;;;10.13;6.47;;;;;;;3.95;72.28;99011.31;4469144;32;34316;-67
2021/12/03 07:05:07;;;;;;;9.75;5.40;;;;;;;3.98;70.76;99012.75;4468966;32;33817;-66
2021/12/03 07:07:34;;;;;;;9.90;5.53;;;;;;;3.77;70.94;99025.53;4469069;32;33644;-71
2021/12/03 07:10:04;;;;;;;12.68;5.35;;;;;;;3.86;70.96;99024.19;4469034;32;34785;-66
2021/12/03 07:12:31;;;;;;;8.75;4.90;;;;;;;4.27;69.98;99027.25;4467896;32;34244;-67
2021/12/03 07:14:59;;;;;;;10.32;5.00;;;;;;;4.55;68.59;99044.69;4477525;32;33962;-68
2021/12/03 07:17:32;;;;;;;9.90;5.35;;;;;;;4.17;68.95;99041.22;4470601;32;33575;-67
2021/12/03 07:20:06;;;;;;;9.07;4.75;;;;;;;4.22;68.89;99038.66;4482870;32;34817;-66
2021/12/03 07:22:34;;;;;;;9.65;4.30;;;;;;;4.09;68.81;99047.69;4484715;32;34282;-67
2021/12/03 07:25:02;;;;;;;7.97;4.53;;;;;;;4.18;68.38;99050.91;4496442;31;34888;-68
2021/12/03 07:27:30;;;;;;;7.93;3.92;;;;;;;3.80;69.67;99056.47;4484544;32;33672;-68
2021/12/03 07:29:57;;;;;;;7.70;4.75;;;;;;;4.43;68.46;99072.31;4484428;32;33597;-70
2021/12/03 07:32:26;;;;;;;8.00;4.62;;;;;;;4.28;68.86;99080.75;4484623;32;34938;-76
2021/12/03 07:34:54;;;;;;;7.22;4.18;;;;;;;4.42;67.78;99097.50;4495652;31;34718;-72
2021/12/03 07:37:21;;;;;;;7.45;4.12;;;;;;;4.62;66.48;99113.41;4484520;32;33109;-66
2021/12/03 07:39:49;;;;;;;8.32;3.97;;;;;;;4.47;67.42;99113.78;4484477;32;33740;-67
2021/12/03 07:42:17;;;;;;;6.37;3.60;;;;;;;4.57;66.88;99120.50;4478939;32;34471;-66
2021/12/03 07:44:44;;;;;;;6.60;3.72;;;;;;;4.89;65.87;99124.63;4468424;32;34613;-67
2021/12/03 07:47:12;;;;;;;6.57;3.67;;;;;;;4.50;66.92;99134.81;4469088;32;33562;-66
2021/12/03 07:49:40;;;;;;;7.15;3.47;;;;;;;4.56;66.40;99132.28;4467902;32;34836;-66
2021/12/03 07:52:11;;;;;;;6.80;2.95;;;;;;;3.51;67.45;99138.44;4472295;32;34959;-67
2021/12/03 07:54:39;;;;;;;6.25;3.58;;;;;;;3.73;69.36;99136.22;4484470;32;34764;-67
2021/12/03 07:57:07;;;;;;;9.38;3.50;;;;;;;4.27;66.52;99151.59;4484268;32;33255;-78
2021/12/03 07:59:34;;;;;;;7.05;3.30;;;;;;;4.22;67.34;99159.50;4484163;32;33954;-66
2021/12/03 08:02:02;;;;;;;6.55;3.22;;;;;;;4.12;67.15;99169.91;4483981;32;33729;-67
2021/12/03 08:04:31;;;;;;;7.30;4.30;;;;;;;4.11;66.63;99170.97;4483716;32;33916;-81
2021/12/03 08:07:00;;;;;;;7.05;3.05;;;;;;;3.52;67.25;99183.00;4483153;32;33559;-69
2021/12/03 08:09:28;;;;;;;7.60;3.33;;;;;;;3.86;66.81;99187.88;4483593;32;33968;-67
2021/12/03 08:11:56;;;;;;;6.70;3.10;;;;;;;3.57;66.05;99186.69;4484425;32;35226;-78
2021/12/03 08:14:23;;;;;;;7.45;3.60;;;;;;;4.03;66.73;99201.59;4484126;32;33804;-66
2021/12/03 08:16:50;;;;;;;6.22;3.37;;;;;;;4.96;64.54;99213.25;4482110;32;33733;-69
2021/12/03 08:19:18;;;;;;;6.62;3.17;;;;;;;4.98;64.99;99213.03;4483124;32;33823;-75
2021/12/03 08:21:46;;;;;;;5.40;2.95;;;;;;;4.83;63.65;99219.59;4483876;32;34262;-68
2021/12/03 08:24:13;;;;;;;6.72;3.30;;;;;;;4.83;62.78;99222.28;4483499;32;34066;-65
2021/12/03 08:26:41;;;;;;;6.00;2.90;;;;;;;5.29;61.99;99233.53;4482827;32;33083;-68
2021/12/03 08:29:08;;;;;;;5.87;3.05;;;;;;;5.05;63.60;99228.03;4483560;32;34493;-66
2021/12/03 08:31:37;;;;;;;5.82;3.30;;;;;;;4.98;63.04;99231.84;4484140;32;33850;-66
2021/12/03 08:34:06;;;;;;;5.87;3.20;;;;;;;5.02;62.59;99228.47;4483726;32;34040;-66
2021/12/03 08:36:33;;;;;;;7.72;3.40;;;;;;;4.32;62.61;99236.88;4483949;32;33533;-66
2021/12/03 08:39:01;;;;;;;6.62;3.00;;;;;;;4.52;61.42;99232.13;4482559;32;33944;-78
2021/12/03 08:41:30;;;;;;;5.18;2.58;;;;;;;4.24;61.73;99239.84;4484211;32;34757;-76
2021/12/03 08:43:58;;;;;;;6.80;3.00;;;;;;;4.39;61.74;99243.00;4482625;32;34003;-72
2021/12/03 08:46:34;;;;;;;6.57;3.15;;;;;;;4.93;62.07;99260.22;4477852;32;33485;-78
2021/12/03 08:49:27;;;;;;;6.12;2.70;;;;;;;4.44;60.43;99250.41;4467741;32;34785;-66
2021/12/03 08:54:55;;;;;;;6.07;2.70;;;;;;;5.19;60.67;99287.84;4467207;32;34005;-68
2021/12/03 08:57:30;;;;;;;4.60;2.50;;;;;;;5.34;58.46;99282.09;4466850;32;33161;-68
2021/12/03 09:00:03;;;;;;;4.53;2.37;;;;;;;5.68;56.57;99295.91;4468012;32;33463;-68
2021/12/03 09:02:30;;;;;;;6.05;2.70;;;;;;;5.37;57.89;99295.09;4469866;32;34280;-67
2021/12/03 09:04:58;;;;;;;7.03;3.00;;;;;;;5.75;59.22;99299.37;4483580;32;34260;-68
2021/12/03 09:07:26;;;;;;;4.05;2.33;;;;;;;5.76;58.48;99309.06;4483286;32;33802;-67
2021/12/03 09:09:53;;;;;;;7.25;2.85;;;;;;;6.03;56.73;99317.63;4483718;32;33603;-67
2021/12/03 09:12:21;;;;;;;6.32;2.90;;;;;;;6.14;56.94;99319.53;4483761;32;34109;-69
2021/12/03 09:14:52;;;;;;;4.50;2.90;;;;;;;6.02;56.22;99324.06;4483207;32;33970;-66
2021/12/03 09:17:33;;;;;;;7.25;2.67;;;;;;;6.59;56.99;99337.06;4494969;31;34177;-68
2021/12/03 09:25:34;;;;;;;6.05;3.37;;;;;;;6.20;58.31;99339.34;4479639;31;33911;-67
2021/12/03 09:28:03;;;;;;;5.05;2.70;;;;;;;6.18;56.58;99349.53;4483582;32;33490;-66
2021/12/03 09:30:40;;;;;;;4.30;2.47;;;;;;;6.27;55.04;99342.75;4483949;32;34769;-69
2021/12/03 09:33:12;;;;;;;5.00;2.80;;;;;;;5.87;54.19;99342.47;4483892;32;35184;-67
2021/12/03 09:35:44;;;;;;;6.10;2.92;;;;;;;5.46;55.67;99338.63;4483491;32;33729;-68
2021/12/03 09:38:12;;;;;;;4.50;2.53;;;;;;;5.65;57.13;99332.19;4483442;32;33304;-67
2021/12/03 09:40:42;;;;;;;5.45;2.72;;;;;;;6.07;55.94;99334.97;4483883;32;33922;-69
2021/12/03 09:43:09;;;;;;;5.18;2.58;;;;;;;6.10;54.21;99341.78;4483545;32;34293;-68
2021/12/03 09:45:38;;;;;;;6.22;2.85;;;;;;;5.40;55.57;99332.31;4483524;32;33791;-66
2021/12/03 09:48:16;;;;;;;3.97;2.30;;;;;;;6.21;54.40;99338.28;4482475;32;33413;-66
2021/12/03 09:50:45;;;;;;;5.78;2.37;;;;;;;6.31;53.58;99332.34;4477005;32;33964;-69
2021/12/03 09:53:34;;;;;;;7.35;2.72;;;;;;;5.59;55.34;99329.59;4467813;32;35078;-68
2021/12/03 09:56:02;;;;;;;5.72;2.45;;;;;;;5.27;54.42;99335.12;4466213;32;34667;-71
2021/12/03 10:01:14;;;;;;;5.10;2.10;;;;;;;5.78;52.72;99336.56;4475157;32;33848;-64
2021/12/03 10:04:04;;;;;;;3.30;2.00;;;;;;;5.89;54.59;99343.06;4482857;32;34777;-68
2021/12/03 10:08:05;;;;;;;5.40;2.25;;;;;;;6.08;51.84;99351.94;4482583;32;33908;-67
2021/12/03 10:36:47;;;;;;;6.00;2.85;;;;;;;6.36;53.18;99367.50;4468081;32;34069;-67
2021/12/03 10:39:32;;;;;;;6.70;2.90;;;;;;;6.14;53.40;99373.41;4467711;32;33926;-64
2021/12/03 10:48:07;;;;;;;5.53;2.72;;;;;;;5.66;56.25;99371.53;4469300;32;35045;-64
2021/12/03 11:51:09;;;;;;;4.90;2.60;;;;;;;5.27;51.53;99440.88;4484750;32;33650;-67
2021/12/03 12:24:56;;;;;;;3.83;2.10;;;;;;;5.01;50.63;99460.75;4484719;32;34175;-66
2021/12/03 13:04:44;;;;;;;5.53;3.00;;;;;;;4.96;52.90;99486.66;4478172;32;34443;-65
2021/12/03 13:14:45;;;;;;;4.78;2.80;;;;;;;5.14;52.94;99498.28;4468069;32;33863;-66
2021/12/03 13:20:23;;;;;;;5.55;2.62;;;;;;;4.60;53.04;99486.28;4467462;32;33784;-71
2021/12/03 14:36:51;;;;;;;5.25;3.00;;;;;;;4.07;56.86;99580.50;4484792;32;33354;-65
2021/12/03 14:42:06;;;;;;;6.03;3.50;;;;;;;3.95;56.12;99576.81;4484754;32;33721;-65
2021/12/03 14:45:36;;;;;;;4.60;2.80;;;;;;;4.08;57.44;99584.81;4479405;32;32130;-67
2021/12/03 14:53:37;;;;;;;7.68;3.62;;;;;;;3.88;56.54;99583.00;4465108;32;34189;-65
2021/12/03 14:56:09;;;;;;;5.72;3.28;;;;;;;3.93;56.74;99597.66;4468924;32;34293;-66
2021/12/03 14:58:52;;;;;;;6.68;3.40;;;;;;;4.20;55.52;99598.44;4468850;32;34665;-66
2021/12/03 15:06:42;;;;;;;6.70;3.35;;;;;;;3.97;55.78;99604.25;4460515;32;34179;-65
2021/12/03 15:09:26;;;;;;;5.65;3.40;;;;;;;4.02;55.64;99605.31;4469230;32;33581;-65
2021/12/03 15:12:32;;;;;;;6.45;3.47;;;;;;;4.11;55.25;99612.09;4468921;32;35224;-65
2021/12/03 15:20:24;;;;;;;6.35;4.03;;;;;;;3.93;54.96;99614.63;4468516;32;32741;-65
2021/12/03 15:23:12;;;;;;;5.57;3.47;;;;;;;3.47;56.00;99623.50;4469142;32;34264;-66
2021/12/03 15:31:44;;;;;;;8.05;4.28;;;;;;;3.67;56.51;99635.06;4453999;32;34566;-66
2021/12/03 15:35:01;;;;;;;8.90;5.07;;;;;;;3.63;56.32;99641.88;4478368;31;33843;-71
2021/12/03 15:37:17;;;;;;;10.00;5.90;;;;;;;3.88;55.46;99639.38;4482053;32;33992;-68
2021/12/03 16:04:31;;;;;;;7.12;4.07;;;;;;;3.41;55.16;99665.37;4483936;32;33753;-68
2021/12/03 16:10:16;;;;;;;6.03;3.50;;;;;;;3.22;54.56;99677.72;4483986;32;34605;-64
2021/12/03 16:17:42;;;;;;;8.55;4.40;;;;;;;3.55;53.84;99702.94;4483573;32;34224;-65
2021/12/03 16:45:21;;;;;;;6.45;3.85;;;;;;;2.25;56.67;99708.19;4468071;32;33265;-66
2021/12/03 16:53:02;;;;;;;5.37;3.33;;;;;;;1.76;56.27;99722.41;4467888;32;34713;-68
2021/12/03 16:55:30;;;;;;;6.20;3.60;;;;;;;1.71;57.22;99724.84;4467757;32;34389;-67
2021/12/03 16:57:58;;;;;;;7.90;4.18;;;;;;;1.75;57.30;99729.59;4467814;32;34396;-66
2021/12/03 17:00:37;;;;;;;7.40;4.05;;;;;;;1.82;56.07;99727.81;4468153;32;35064;-67
2021/12/03 17:03:15;;;;;;;7.18;3.95;;;;;;;1.50;57.70;99736.34;4467490;32;33886;-66
2021/12/03 17:08:38;;;;;;;8.82;4.00;;;;;;;2.35;56.44;99723.88;4468174;32;34369;-63
2021/12/03 17:49:35;;;;;;;9.05;5.12;;;;;;;1.49;55.30;99738.22;4482606;32;33712;-65
2021/12/03 17:53:07;;;;;;;12.15;5.80;;;;;;;1.78;56.82;99739.91;4483405;32;33831;-65
2021/12/03 18:00:06;;;;;;;11.23;6.07;;;;;;;1.72;55.07;99754.03;4482957;32;34237;-66
2021/12/03 18:02:46;;;;;;;8.90;5.62;;;;;;;2.08;53.07;99761.16;4494208;31;34003;-65
2021/12/03 18:05:33;;;;;;;12.25;6.18;;;;;;;1.87;53.98;99759.34;4482828;32;33835;-68
2021/12/03 18:08:15;;;;;;;0.50;0.50;;;;;;;2.19;53.09;99757.97;4492891;31;34324;-67
2021/12/03 18:13:41;;;;;;;8.85;5.00;;;;;;;1.82;55.08;99762.59;4482940;32;33859;-66
2021/12/03 18:43:57;;;;;;;12.73;6.60;;;;;;;2.21;54.77;99758.59;4484576;32;33249;-66
2021/12/03 18:56:48;;;;;;;14.25;7.85;;;;;;;1.84;55.48;99760.56;4483203;32;34796;-67
2021/12/03 18:59:16;;;;;;;11.85;5.87;;;;;;;1.68;55.71;99758.13;4484917;32;33912;-66
2021/12/03 19:01:43;;;;;;;33.65;19.27;;;;;;;1.52;57.35;99767.22;4482976;32;34593;-67
2021/12/03 19:09:20;;;;;;;32.70;19.77;;;;;;;2.19;54.90;99754.47;4484007;32;33840;-66